createdAt,value
2023-01-03T00:04:27.943Z,11.99
2023-01-03T00:09:29.656Z,11.97
2023-01-03T00:14:34.448Z,12.07
2023-01-03T00:19:39.551Z,12.09
2023-01-03T00:24:42.087Z,12.13
2023-01-03T00:29:44.172Z,12.12
2023-01-03T00:34:46.512Z,12.02
2023-01-03T00:39:48.059Z,12.04
2023-01-03T00:44:49.559Z,12.23
2023-01-03T00:49:51.024Z,12.35
2023-01-03T00:54:52.453Z,12.41
2023-01-03T00:59:53.957Z,12.33
2023-01-03T01:04:55.500Z,12.46
2023-01-03T01:09:57.028Z,12.35
2023-01-03T01:14:58.553Z,12.42
2023-01-03T01:20:00.007Z,12.26
2023-01-03T01:25:01.971Z,12.33
2023-01-03T01:30:04.779Z,12.15
2023-01-03T01:35:06.773Z,12.19
2023-01-03T01:40:08.912Z,12.19
2023-01-03T01:45:14.453Z,12.21
2023-01-03T01:50:22.556Z,12.21
2023-01-03T01:55:30.047Z,12.14
2023-01-03T02:00:32.923Z,12.09
2023-01-03T02:05:36.968Z,12.03
2023-01-03T02:10:56.771Z,11.89
2023-01-03T02:16:24.036Z,11.95
2023-01-03T02:21:53.569Z,11.83
2023-01-03T02:27:03.019Z,11.67
2023-01-03T02:32:17.744Z,11.63
2023-01-03T02:37:32.778Z,11.75
2023-01-03T02:42:46.505Z,11.64
2023-01-03T02:47:57.916Z,11.62
2023-01-03T02:53:05.527Z,11.58
2023-01-03T02:58:12.780Z,11.56
2023-01-03T03:03:19.565Z,11.62
2023-01-03T03:08:21.199Z,11.52
2023-01-03T03:13:34.054Z,11.43
2023-01-03T03:18:50.497Z,11.42
2023-01-03T03:23:54.306Z,11.43
2023-01-03T03:29:02.485Z,11.45
2023-01-03T03:34:21.844Z,11.49
2023-01-03T03:39:24.869Z,11.39
2023-01-03T03:44:38.250Z,11.34
2023-01-03T03:49:43.914Z,11.29
2023-01-03T03:54:52.318Z,11.02
2023-01-03T03:59:58.810Z,11.02
2023-01-03T04:05:03.562Z,10.93
2023-01-03T04:10:06.294Z,11.07
2023-01-03T04:15:08.147Z,11.21
2023-01-03T04:20:11.092Z,11.27
2023-01-03T04:25:12.686Z,11.33
2023-01-03T04:30:14.239Z,11.40
2023-01-03T04:35:15.745Z,11.45
2023-01-03T04:40:17.375Z,11.18
2023-01-03T04:45:18.855Z,11.34
2023-01-03T04:50:20.320Z,11.49
2023-01-03T04:55:22.061Z,11.45
2023-01-03T05:00:23.533Z,11.45
2023-01-03T05:05:25.015Z,11.60
2023-01-03T05:10:26.480Z,11.60
2023-01-03T05:15:34.318Z,11.55
2023-01-03T05:20:37.123Z,11.55
2023-01-03T05:25:38.630Z,11.47
2023-01-03T05:30:40.160Z,11.41
2023-01-03T05:35:41.611Z,11.42
2023-01-03T05:40:43.482Z,11.33
2023-01-03T05:45:49.114Z,11.28
2023-01-03T05:50:50.614Z,11.18
2023-01-03T05:55:52.393Z,11.20
2023-01-03T06:00:53.889Z,11.10
2023-01-03T06:05:55.421Z,11.19
2023-01-03T06:10:56.941Z,11.26
2023-01-03T06:16:09.703Z,11.24
2023-01-03T06:21:11.212Z,11.17
2023-01-03T06:26:16.228Z,11.12
2023-01-03T06:31:18.170Z,10.95
2023-01-03T06:36:21.534Z,11.15
2023-01-03T06:41:23.041Z,11.05
2023-01-03T06:46:24.720Z,11.16
2023-01-03T06:51:27.820Z,11.11
2023-01-03T06:56:29.340Z,11.10
2023-01-03T07:01:31.077Z,11.01
2023-01-03T07:06:32.630Z,11.01
2023-01-03T07:11:34.486Z,11.01
2023-01-03T07:16:55.957Z,10.98
2023-01-03T07:21:57.473Z,10.94
2023-01-03T07:26:58.945Z,10.82
2023-01-03T07:32:00.450Z,10.74
2023-01-03T07:37:01.953Z,10.81
2023-01-03T07:42:03.480Z,10.69
2023-01-03T07:47:05.009Z,10.67
2023-01-03T07:52:06.485Z,10.73
2023-01-03T07:57:07.989Z,10.74
2023-01-03T08:02:09.572Z,10.60
2023-01-03T08:07:11.230Z,10.58
2023-01-03T08:12:12.724Z,10.74
2023-01-03T08:17:14.167Z,10.88
2023-01-03T08:22:15.678Z,10.71
2023-01-03T08:27:17.134Z,10.77
2023-01-03T08:32:19.177Z,10.70
2023-01-03T08:37:21.160Z,10.80
2023-01-03T08:42:23.995Z,10.78
2023-01-03T08:47:25.556Z,10.62
2023-01-03T08:52:33.109Z,10.80
2023-01-03T08:57:36.460Z,10.87
2023-01-03T09:02:38.140Z,10.81
2023-01-03T09:07:39.900Z,11.01
2023-01-03T09:12:41.404Z,10.79
2023-01-03T09:17:42.959Z,10.88
2023-01-03T09:22:44.700Z,11.03
2023-01-03T09:27:47.610Z,10.82
2023-01-03T09:32:52.195Z,11.07
2023-01-03T09:37:53.704Z,11.12
2023-01-03T09:43:04.440Z,11.04
2023-01-03T09:48:06.534Z,11.10
2023-01-03T09:53:18.504Z,11.30
2023-01-03T09:58:20.504Z,10.94
2023-01-03T10:03:52.804Z,10.98
2023-01-03T10:09:06.457Z,11.28
2023-01-03T10:14:26.341Z,11.30
2023-01-03T10:19:30.506Z,11.29
2023-01-03T10:24:44.667Z,11.18
2023-01-03T10:29:47.806Z,11.44
2023-01-03T10:35:23.442Z,11.56
2023-01-03T10:40:58.285Z,11.35
2023-01-03T10:45:59.805Z,11.46
2023-01-03T10:51:05.042Z,11.58
2023-01-03T10:56:07.514Z,11.41
2023-01-03T11:01:19.968Z,11.39
2023-01-03T11:06:21.698Z,11.61
2023-01-03T11:11:32.070Z,11.67
2023-01-03T11:16:33.674Z,11.46
2023-01-03T11:21:50.386Z,11.38
2023-01-03T11:27:26.882Z,11.38
2023-01-03T11:32:35.939Z,11.45
2023-01-03T11:37:56.657Z,11.71
2023-01-03T11:43:34.954Z,11.83
2023-01-03T11:49:11.862Z,11.77
2023-01-03T11:54:53.142Z,12.05
2023-01-03T12:00:11.931Z,12.02
2023-01-03T12:05:30.837Z,12.05
2023-01-03T12:10:53.821Z,11.99
2023-01-03T12:16:10.352Z,12.06
2023-01-03T12:21:18.648Z,12.04
2023-01-03T12:26:24.980Z,12.02
2023-01-03T12:31:44.060Z,11.96
2023-01-03T12:37:08.449Z,12.03
2023-01-03T12:42:36.436Z,12.11
2023-01-03T12:47:46.995Z,12.12
2023-01-03T12:52:58.523Z,12.14
2023-01-03T12:58:39.270Z,12.23
2023-01-03T13:03:52.896Z,12.28
2023-01-03T13:09:02.773Z,12.39
2023-01-03T13:14:16.066Z,12.40
2023-01-03T13:19:20.584Z,12.29
2023-01-03T13:24:40.244Z,12.12
2023-01-03T13:29:43.369Z,11.73
2023-01-03T13:34:44.898Z,12.05
2023-01-03T13:39:57.991Z,12.02
2023-01-03T13:45:11.430Z,12.03
2023-01-03T13:50:32.270Z,11.84
2023-01-03T13:55:40.468Z,11.77
2023-01-03T14:00:43.094Z,11.97
2023-01-03T14:06:25.462Z,12.05
2023-01-03T14:11:45.531Z,11.92
2023-01-03T14:16:55.368Z,11.95
2023-01-03T14:22:28.591Z,11.95
2023-01-03T14:27:38.627Z,11.91
2023-01-03T14:32:40.130Z,12.09
2023-01-03T14:37:46.205Z,11.99
2023-01-03T14:42:47.784Z,11.90
2023-01-03T14:47:53.420Z,11.96
2023-01-03T14:52:57.611Z,11.98
2023-01-03T14:58:04.795Z,11.89
2023-01-03T15:03:12.673Z,11.49
2023-01-03T15:08:30.161Z,11.37
2023-01-03T15:13:52.093Z,11.53
2023-01-03T15:19:03.162Z,11.58
2023-01-03T15:24:05.369Z,11.49
2023-01-03T15:29:17.427Z,11.53
2023-01-03T15:34:20.081Z,11.44
2023-01-03T15:39:25.518Z,11.37
2023-01-03T15:44:28.107Z,11.39
2023-01-03T15:49:31.695Z,11.74
2023-01-03T15:54:33.261Z,11.55
2023-01-03T15:59:42.920Z,11.39
2023-01-03T16:04:46.590Z,11.22
2023-01-03T16:09:48.566Z,10.94
2023-01-03T16:14:52.944Z,11.13
2023-01-03T16:19:56.387Z,11.07
2023-01-03T16:24:57.894Z,10.75
2023-01-03T16:29:59.560Z,10.70
2023-01-03T16:35:03.606Z,10.73
2023-01-03T16:40:10.606Z,10.81
2023-01-03T16:45:12.627Z,10.85
2023-01-03T16:50:17.373Z,10.95
2023-01-03T16:55:26.517Z,10.85
2023-01-03T17:00:30.128Z,10.58
2023-01-03T17:05:33.848Z,10.66
2023-01-03T17:10:40.637Z,10.45
2023-01-03T17:15:42.147Z,10.82
2023-01-03T17:20:43.691Z,10.91
2023-01-03T17:25:45.190Z,11.02
2023-01-03T17:30:47.237Z,11.02
2023-01-03T17:35:48.891Z,10.98
2023-01-03T17:40:51.223Z,10.89
2023-01-03T17:45:55.275Z,10.68
2023-01-03T17:50:58.218Z,10.76
2023-01-03T17:55:59.867Z,10.44
2023-01-03T18:01:01.906Z,10.42
2023-01-03T18:06:15.642Z,10.22
2023-01-03T18:11:23.311Z,10.26
2023-01-03T18:16:24.918Z,9.95
2023-01-03T18:21:27.181Z,9.86
2023-01-03T18:26:34.232Z,9.71
2023-01-03T18:31:35.731Z,9.80
2023-01-03T18:36:43.301Z,9.93
2023-01-03T18:41:44.768Z,9.82
2023-01-03T18:46:46.259Z,9.65
2023-01-03T18:51:52.643Z,9.66
2023-01-03T18:56:54.196Z,9.70
2023-01-03T19:01:55.747Z,9.86
2023-01-03T19:06:57.330Z,10.05
2023-01-03T19:11:58.792Z,10.17
2023-01-03T19:17:00.345Z,10.22
2023-01-03T19:22:02.645Z,10.23
2023-01-03T19:27:06.124Z,10.05
2023-01-03T19:32:16.343Z,9.82
2023-01-03T19:37:18.245Z,9.60
2023-01-03T19:42:21.005Z,9.72
2023-01-03T19:47:22.461Z,9.53
2023-01-03T19:52:23.935Z,9.68
2023-01-03T19:57:31.785Z,9.98
2023-01-03T20:02:37.140Z,9.86
2023-01-03T20:07:38.769Z,10.02
2023-01-03T20:12:40.234Z,10.15
2023-01-03T20:17:41.699Z,9.92
2023-01-03T20:28:06.983Z,10.03
2023-01-03T20:33:08.530Z,10.09
2023-01-03T20:38:11.648Z,10.25
2023-01-03T20:43:13.790Z,10.19
2023-01-03T20:48:21.278Z,10.04
2023-01-03T20:53:27.058Z,10.13
2023-01-03T20:58:28.594Z,10.00
2023-01-03T21:03:30.126Z,10.03
2023-01-03T21:08:31.680Z,9.93
2023-01-03T21:13:33.241Z,9.46
2023-01-03T21:18:34.730Z,9.79
2023-01-03T21:23:36.184Z,9.39
2023-01-03T21:28:37.683Z,8.97
2023-01-03T21:33:39.116Z,8.97
2023-01-03T21:38:40.621Z,9.03
2023-01-03T21:43:42.155Z,9.23
2023-01-03T21:48:43.872Z,9.35
2023-01-03T21:53:45.631Z,9.12
2023-01-03T21:58:47.835Z,9.11
2023-01-03T22:03:50.403Z,9.03
2023-01-03T22:08:52.916Z,9.02
2023-01-03T22:13:56.693Z,9.15
2023-01-03T22:18:58.828Z,9.10
2023-01-03T22:24:00.355Z,9.09
2023-01-03T22:29:01.811Z,9.25
2023-01-03T22:34:03.715Z,9.28
2023-01-03T22:39:05.275Z,8.99
2023-01-03T22:44:06.985Z,8.91
2023-01-03T22:49:08.631Z,8.94
2023-01-03T22:54:10.171Z,8.67
2023-01-03T22:59:11.708Z,8.64
2023-01-03T23:04:13.463Z,8.77
2023-01-03T23:09:15.059Z,9.17
2023-01-03T23:14:21.207Z,9.17
2023-01-03T23:19:25.579Z,9.11
2023-01-03T23:24:27.057Z,9.20
2023-01-03T23:29:28.563Z,9.22
2023-01-03T23:34:30.088Z,9.13
2023-01-03T23:39:31.620Z,9.20
2023-01-03T23:44:33.102Z,9.26
2023-01-03T23:49:34.650Z,9.33
2023-01-03T23:54:36.176Z,9.35
2023-01-03T23:59:37.636Z,9.31
